sensor_id;sensor_type;location;lat;lon;timestamp;P1;durP1;ratioP1;P2;durP2;ratioP2
14030;SDS011;7090;49.436;8.490;2023-09-19T00:01:34;2.97;;;2.58;;
14030;SDS011;7090;49.436;8.490;2023-09-19T00:04:00;2.95;;;2.85;;
14030;SDS011;7090;49.436;8.490;2023-09-19T00:06:28;2.60;;;2.50;;
14030;SDS011;7090;49.436;8.490;2023-09-19T00:08:56;3.10;;;3.00;;
14030;SDS011;7090;49.436;8.490;2023-09-19T00:11:23;2.20;;;2.15;;
14030;SDS011;7090;49.436;8.490;2023-09-19T00:13:51;2.47;;;2.38;;
14030;SDS011;7090;49.436;8.490;2023-09-19T00:16:16;2.30;;;2.22;;
14030;SDS011;7090;49.436;8.490;2023-09-19T00:18:44;2.90;;;2.80;;
14030;SDS011;7090;49.436;8.490;2023-09-19T00:21:09;3.10;;;2.92;;
14030;SDS011;7090;49.436;8.490;2023-09-19T00:23:35;2.60;;;2.50;;
14030;SDS011;7090;49.436;8.490;2023-09-19T00:26:00;2.60;;;2.45;;
14030;SDS011;7090;49.436;8.490;2023-09-19T00:28:26;2.80;;;2.60;;
14030;SDS011;7090;49.436;8.490;2023-09-19T00:30:52;2.40;;;2.30;;
14030;SDS011;7090;49.436;8.490;2023-09-19T00:33:20;3.15;;;2.95;;
14030;SDS011;7090;49.436;8.490;2023-09-19T00:35:46;2.40;;;2.30;;
14030;SDS011;7090;49.436;8.490;2023-09-19T00:38:16;2.70;;;2.50;;
14030;SDS011;7090;49.436;8.490;2023-09-19T00:40:45;2.40;;;2.30;;
14030;SDS011;7090;49.436;8.490;2023-09-19T00:43:11;2.90;;;2.80;;
14030;SDS011;7090;49.436;8.490;2023-09-19T00:45:37;3.30;;;3.10;;
14030;SDS011;7090;49.436;8.490;2023-09-19T00:48:07;3.00;;;2.80;;
14030;SDS011;7090;49.436;8.490;2023-09-19T00:50:34;2.40;;;2.30;;
14030;SDS011;7090;49.436;8.490;2023-09-19T00:53:00;2.60;;;2.50;;
14030;SDS011;7090;49.436;8.490;2023-09-19T00:55:27;3.60;;;2.80;;
14030;SDS011;7090;49.436;8.490;2023-09-19T00:57:55;2.72;;;2.63;;
14030;SDS011;7090;49.436;8.490;2023-09-19T01:00:21;2.10;;;2.10;;
14030;SDS011;7090;49.436;8.490;2023-09-19T01:02:48;2.60;;;2.50;;
14030;SDS011;7090;49.436;8.490;2023-09-19T01:05:14;3.05;;;2.75;;
14030;SDS011;7090;49.436;8.490;2023-09-19T01:07:40;2.70;;;2.60;;
14030;SDS011;7090;49.436;8.490;2023-09-19T01:10:07;2.97;;;2.70;;
14030;SDS011;7090;49.436;8.490;2023-09-19T01:31:49;2.50;;;2.40;;
14030;SDS011;7090;49.436;8.490;2023-09-19T01:34:19;2.50;;;2.40;;
14030;SDS011;7090;49.436;8.490;2023-09-19T01:36:45;2.75;;;2.65;;
14030;SDS011;7090;49.436;8.490;2023-09-19T01:39:11;2.60;;;2.50;;
14030;SDS011;7090;49.436;8.490;2023-09-19T01:41:44;3.15;;;2.95;;
14030;SDS011;7090;49.436;8.490;2023-09-19T01:44:13;2.80;;;2.70;;
14030;SDS011;7090;49.436;8.490;2023-09-19T01:46:50;2.53;;;2.42;;
14030;SDS011;7090;49.436;8.490;2023-09-19T01:49:37;2.47;;;2.38;;
14030;SDS011;7090;49.436;8.490;2023-09-19T01:52:15;2.50;;;2.40;;
14030;SDS011;7090;49.436;8.490;2023-09-19T01:55:06;2.78;;;2.58;;
14030;SDS011;7090;49.436;8.490;2023-09-19T01:57:34;2.33;;;2.22;;
14030;SDS011;7090;49.436;8.490;2023-09-19T02:00:08;2.92;;;2.80;;
14030;SDS011;7090;49.436;8.490;2023-09-19T02:02:40;2.55;;;2.45;;
14030;SDS011;7090;49.436;8.490;2023-09-19T02:05:09;2.60;;;2.50;;
14030;SDS011;7090;49.436;8.490;2023-09-19T02:07:35;3.72;;;2.67;;
14030;SDS011;7090;49.436;8.490;2023-09-19T02:10:03;2.95;;;2.75;;
14030;SDS011;7090;49.436;8.490;2023-09-19T02:12:30;2.72;;;2.63;;
14030;SDS011;7090;49.436;8.490;2023-09-19T02:14:57;2.70;;;2.55;;
14030;SDS011;7090;49.436;8.490;2023-09-19T02:17:24;2.88;;;2.78;;
14030;SDS011;7090;49.436;8.490;2023-09-19T02:19:51;3.20;;;3.00;;
14030;SDS011;7090;49.436;8.490;2023-09-19T02:22:20;3.70;;;3.25;;
14030;SDS011;7090;49.436;8.490;2023-09-19T02:24:48;4.68;;;2.70;;
14030;SDS011;7090;49.436;8.490;2023-09-19T02:27:14;2.80;;;2.60;;
14030;SDS011;7090;49.436;8.490;2023-09-19T02:29:41;2.83;;;2.72;;
14030;SDS011;7090;49.436;8.490;2023-09-19T02:32:07;2.38;;;2.28;;
14030;SDS011;7090;49.436;8.490;2023-09-19T02:34:34;3.97;;;3.28;;
14030;SDS011;7090;49.436;8.490;2023-09-19T02:37:01;2.75;;;2.65;;
14030;SDS011;7090;49.436;8.490;2023-09-19T02:39:31;2.75;;;2.60;;
14030;SDS011;7090;49.436;8.490;2023-09-19T02:41:57;3.38;;;2.80;;
14030;SDS011;7090;49.436;8.490;2023-09-19T02:44:23;3.40;;;3.17;;
14030;SDS011;7090;49.436;8.490;2023-09-19T02:46:49;3.00;;;2.80;;
14030;SDS011;7090;49.436;8.490;2023-09-19T02:49:15;3.75;;;2.90;;
14030;SDS011;7090;49.436;8.490;2023-09-19T02:51:43;2.80;;;2.70;;
14030;SDS011;7090;49.436;8.490;2023-09-19T02:54:09;2.40;;;2.30;;
14030;SDS011;7090;49.436;8.490;2023-09-19T02:56:35;2.42;;;2.33;;
14030;SDS011;7090;49.436;8.490;2023-09-19T02:59:02;3.00;;;2.90;;
14030;SDS011;7090;49.436;8.490;2023-09-19T03:01:28;3.10;;;2.90;;
14030;SDS011;7090;49.436;8.490;2023-09-19T03:03:53;3.13;;;3.03;;
14030;SDS011;7090;49.436;8.490;2023-09-19T03:06:20;2.90;;;2.80;;
14030;SDS011;7090;49.436;8.490;2023-09-19T03:08:46;3.60;;;3.40;;
14030;SDS011;7090;49.436;8.490;2023-09-19T03:11:13;3.33;;;3.22;;
14030;SDS011;7090;49.436;8.490;2023-09-19T03:13:40;3.05;;;2.95;;
14030;SDS011;7090;49.436;8.490;2023-09-19T03:16:07;2.97;;;2.88;;
14030;SDS011;7090;49.436;8.490;2023-09-19T03:18:36;3.30;;;3.10;;
14030;SDS011;7090;49.436;8.490;2023-09-19T03:21:02;3.22;;;3.08;;
14030;SDS011;7090;49.436;8.490;2023-09-19T03:23:28;13.23;;;3.72;;
14030;SDS011;7090;49.436;8.490;2023-09-19T03:25:54;3.38;;;3.28;;
14030;SDS011;7090;49.436;8.490;2023-09-19T03:28:21;3.15;;;2.97;;
14030;SDS011;7090;49.436;8.490;2023-09-19T03:33:31;4.40;;;4.20;;
14030;SDS011;7090;49.436;8.490;2023-09-19T03:35:58;4.25;;;4.10;;
14030;SDS011;7090;49.436;8.490;2023-09-19T03:38:24;4.20;;;4.10;;
14030;SDS011;7090;49.436;8.490;2023-09-19T03:40:55;4.50;;;4.35;;
14030;SDS011;7090;49.436;8.490;2023-09-19T03:43:21;4.60;;;4.40;;
14030;SDS011;7090;49.436;8.490;2023-09-19T03:45:46;4.90;;;4.70;;
14030;SDS011;7090;49.436;8.490;2023-09-19T03:48:13;4.75;;;4.55;;
14030;SDS011;7090;49.436;8.490;2023-09-19T03:50:39;5.25;;;4.93;;
14030;SDS011;7090;49.436;8.490;2023-09-19T03:53:04;4.95;;;4.75;;
14030;SDS011;7090;49.436;8.490;2023-09-19T03:55:32;5.07;;;4.88;;
14030;SDS011;7090;49.436;8.490;2023-09-19T03:58:00;5.22;;;4.93;;
14030;SDS011;7090;49.436;8.490;2023-09-19T04:00:26;5.18;;;4.90;;
14030;SDS011;7090;49.436;8.490;2023-09-19T04:02:52;4.57;;;4.38;;
14030;SDS011;7090;49.436;8.490;2023-09-19T04:05:18;4.63;;;4.43;;
14030;SDS011;7090;49.436;8.490;2023-09-19T04:07:44;4.43;;;4.22;;
14030;SDS011;7090;49.436;8.490;2023-09-19T04:10:10;19.02;;;5.65;;
14030;SDS011;7090;49.436;8.490;2023-09-19T04:12:39;4.32;;;4.18;;
14030;SDS011;7090;49.436;8.490;2023-09-19T04:15:05;5.00;;;4.80;;
14030;SDS011;7090;49.436;8.490;2023-09-19T04:17:32;4.53;;;4.40;;
14030;SDS011;7090;49.436;8.490;2023-09-19T04:20:00;5.38;;;5.18;;
14030;SDS011;7090;49.436;8.490;2023-09-19T04:22:26;11.68;;;5.10;;
14030;SDS011;7090;49.436;8.490;2023-09-19T04:24:51;5.72;;;5.43;;
14030;SDS011;7090;49.436;8.490;2023-09-19T04:27:17;5.72;;;5.32;;
14030;SDS011;7090;49.436;8.490;2023-09-19T04:29:43;5.07;;;4.88;;
14030;SDS011;7090;49.436;8.490;2023-09-19T04:32:09;5.85;;;5.43;;
14030;SDS011;7090;49.436;8.490;2023-09-19T04:34:35;4.40;;;4.30;;
14030;SDS011;7090;49.436;8.490;2023-09-19T04:37:01;5.05;;;4.85;;
14030;SDS011;7090;49.436;8.490;2023-09-19T04:39:29;5.18;;;4.68;;
14030;SDS011;7090;49.436;8.490;2023-09-19T04:41:54;8.40;;;5.18;;
14030;SDS011;7090;49.436;8.490;2023-09-19T04:44:20;5.38;;;5.07;;
14030;SDS011;7090;49.436;8.490;2023-09-19T04:46:46;4.95;;;4.75;;
14030;SDS011;7090;49.436;8.490;2023-09-19T04:49:12;4.97;;;4.78;;
14030;SDS011;7090;49.436;8.490;2023-09-19T04:51:38;4.53;;;4.43;;
14030;SDS011;7090;49.436;8.490;2023-09-19T04:54:04;5.88;;;5.57;;
14030;SDS011;7090;49.436;8.490;2023-09-19T04:56:30;9.68;;;5.20;;
14030;SDS011;7090;49.436;8.490;2023-09-19T04:58:57;4.70;;;4.60;;
14030;SDS011;7090;49.436;8.490;2023-09-19T05:01:23;5.18;;;4.97;;
14030;SDS011;7090;49.436;8.490;2023-09-19T05:03:49;4.80;;;4.60;;
14030;SDS011;7090;49.436;8.490;2023-09-19T05:06:21;4.47;;;4.32;;
14030;SDS011;7090;49.436;8.490;2023-09-19T05:08:48;4.20;;;4.10;;
14030;SDS011;7090;49.436;8.490;2023-09-19T05:11:20;4.38;;;4.28;;
14030;SDS011;7090;49.436;8.490;2023-09-19T05:13:47;4.47;;;4.38;;
14030;SDS011;7090;49.436;8.490;2023-09-19T05:16:15;4.50;;;4.40;;
14030;SDS011;7090;49.436;8.490;2023-09-19T05:18:41;4.10;;;4.00;;
14030;SDS011;7090;49.436;8.490;2023-09-19T05:21:07;3.70;;;3.60;;
14030;SDS011;7090;49.436;8.490;2023-09-19T05:23:33;3.70;;;3.60;;
14030;SDS011;7090;49.436;8.490;2023-09-19T05:25:58;4.10;;;4.00;;
14030;SDS011;7090;49.436;8.490;2023-09-19T05:28:25;3.80;;;3.70;;
14030;SDS011;7090;49.436;8.490;2023-09-19T05:30:51;3.80;;;3.70;;
14030;SDS011;7090;49.436;8.490;2023-09-19T05:33:18;3.90;;;3.80;;
14030;SDS011;7090;49.436;8.490;2023-09-19T05:35:49;3.70;;;3.60;;
14030;SDS011;7090;49.436;8.490;2023-09-19T05:38:15;3.80;;;3.70;;
14030;SDS011;7090;49.436;8.490;2023-09-19T05:40:44;3.53;;;3.42;;
14030;SDS011;7090;49.436;8.490;2023-09-19T05:43:10;4.38;;;4.15;;
14030;SDS011;7090;49.436;8.490;2023-09-19T05:45:36;3.55;;;3.45;;
14030;SDS011;7090;49.436;8.490;2023-09-19T05:50:36;4.00;;;3.80;;
14030;SDS011;7090;49.436;8.490;2023-09-19T05:53:02;3.63;;;3.53;;
14030;SDS011;7090;49.436;8.490;2023-09-19T05:55:29;3.83;;;3.65;;
14030;SDS011;7090;49.436;8.490;2023-09-19T05:57:54;4.72;;;4.50;;
14030;SDS011;7090;49.436;8.490;2023-09-19T06:00:20;4.10;;;4.00;;
14030;SDS011;7090;49.436;8.490;2023-09-19T06:02:54;5.28;;;5.07;;
14030;SDS011;7090;49.436;8.490;2023-09-19T06:05:22;5.25;;;4.97;;
14030;SDS011;7090;49.436;8.490;2023-09-19T06:07:48;5.00;;;4.80;;
14030;SDS011;7090;49.436;8.490;2023-09-19T06:10:15;5.47;;;5.13;;
14030;SDS011;7090;49.436;8.490;2023-09-19T06:12:42;5.32;;;5.07;;
14030;SDS011;7090;49.436;8.490;2023-09-19T06:15:09;5.28;;;5.07;;
14030;SDS011;7090;49.436;8.490;2023-09-19T06:17:40;5.47;;;5.18;;
14030;SDS011;7090;49.436;8.490;2023-09-19T06:20:06;5.70;;;5.38;;
14030;SDS011;7090;49.436;8.490;2023-09-19T06:22:40;5.22;;;4.93;;
14030;SDS011;7090;49.436;8.490;2023-09-19T06:25:07;4.97;;;4.78;;
14030;SDS011;7090;49.436;8.490;2023-09-19T06:27:36;5.95;;;5.55;;
14030;SDS011;7090;49.436;8.490;2023-09-19T06:30:02;4.80;;;4.60;;
14030;SDS011;7090;49.436;8.490;2023-09-19T06:32:28;4.50;;;4.40;;
14030;SDS011;7090;49.436;8.490;2023-09-19T06:34:53;5.03;;;4.82;;
14030;SDS011;7090;49.436;8.490;2023-09-19T06:37:20;5.43;;;5.20;;
14030;SDS011;7090;49.436;8.490;2023-09-19T06:39:47;5.55;;;5.30;;
14030;SDS011;7090;49.436;8.490;2023-09-19T06:42:14;6.13;;;5.78;;
14030;SDS011;7090;49.436;8.490;2023-09-19T06:44:42;5.70;;;5.40;;
14030;SDS011;7090;49.436;8.490;2023-09-19T06:47:08;8.57;;;5.63;;
14030;SDS011;7090;49.436;8.490;2023-09-19T06:49:35;4.90;;;4.70;;
14030;SDS011;7090;49.436;8.490;2023-09-19T06:52:01;5.43;;;5.22;;
14030;SDS011;7090;49.436;8.490;2023-09-19T06:54:27;5.65;;;5.25;;
14030;SDS011;7090;49.436;8.490;2023-09-19T06:56:56;5.00;;;4.80;;
14030;SDS011;7090;49.436;8.490;2023-09-19T06:59:23;6.60;;;6.13;;
14030;SDS011;7090;49.436;8.490;2023-09-19T07:01:49;5.82;;;5.53;;
14030;SDS011;7090;49.436;8.490;2023-09-19T07:04:16;4.70;;;4.60;;
14030;SDS011;7090;49.436;8.490;2023-09-19T07:06:44;5.57;;;5.22;;
14030;SDS011;7090;49.436;8.490;2023-09-19T07:09:14;5.57;;;5.38;;
14030;SDS011;7090;49.436;8.490;2023-09-19T07:11:40;7.00;;;6.28;;
14030;SDS011;7090;49.436;8.490;2023-09-19T07:14:06;5.40;;;5.20;;
14030;SDS011;7090;49.436;8.490;2023-09-19T07:16:31;5.63;;;5.38;;
14030;SDS011;7090;49.436;8.490;2023-09-19T07:18:57;6.45;;;5.72;;
14030;SDS011;7090;49.436;8.490;2023-09-19T07:21:23;5.70;;;5.40;;
14030;SDS011;7090;49.436;8.490;2023-09-19T07:23:49;6.60;;;6.30;;
14030;SDS011;7090;49.436;8.490;2023-09-19T07:26:15;6.30;;;5.93;;
14030;SDS011;7090;49.436;8.490;2023-09-19T07:28:41;6.38;;;5.95;;
14030;SDS011;7090;49.436;8.490;2023-09-19T07:31:07;6.78;;;6.38;;
14030;SDS011;7090;49.436;8.490;2023-09-19T07:33:35;6.88;;;6.32;;
14030;SDS011;7090;49.436;8.490;2023-09-19T07:36:01;6.15;;;5.85;;
14030;SDS011;7090;49.436;8.490;2023-09-19T07:38:26;6.10;;;5.60;;
14030;SDS011;7090;49.436;8.490;2023-09-19T07:40:52;5.93;;;5.72;;
14030;SDS011;7090;49.436;8.490;2023-09-19T07:43:18;6.15;;;5.90;;
14030;SDS011;7090;49.436;8.490;2023-09-19T07:45:43;6.25;;;5.88;;
14030;SDS011;7090;49.436;8.490;2023-09-19T07:48:09;6.25;;;5.90;;
14030;SDS011;7090;49.436;8.490;2023-09-19T07:50:40;5.88;;;5.68;;
14030;SDS011;7090;49.436;8.490;2023-09-19T07:53:08;5.63;;;5.43;;
14030;SDS011;7090;49.436;8.490;2023-09-19T07:55:33;5.80;;;5.60;;
14030;SDS011;7090;49.436;8.490;2023-09-19T07:57:59;9.45;;;5.93;;
14030;SDS011;7090;49.436;8.490;2023-09-19T08:00:25;5.40;;;5.20;;
14030;SDS011;7090;49.436;8.490;2023-09-19T08:02:51;6.10;;;5.80;;
14030;SDS011;7090;49.436;8.490;2023-09-19T08:05:19;5.95;;;5.55;;
14030;SDS011;7090;49.436;8.490;2023-09-19T08:07:45;5.80;;;5.50;;
14030;SDS011;7090;49.436;8.490;2023-09-19T08:10:14;5.72;;;5.50;;
14030;SDS011;7090;49.436;8.490;2023-09-19T08:12:41;6.40;;;6.00;;
14030;SDS011;7090;49.436;8.490;2023-09-19T08:15:16;6.13;;;5.70;;
14030;SDS011;7090;49.436;8.490;2023-09-19T08:17:44;5.90;;;5.60;;
14030;SDS011;7090;49.436;8.490;2023-09-19T08:20:11;6.68;;;6.10;;
14030;SDS011;7090;49.436;8.490;2023-09-19T08:22:46;6.50;;;5.90;;
14030;SDS011;7090;49.436;8.490;2023-09-19T08:25:14;6.35;;;6.05;;
14030;SDS011;7090;49.436;8.490;2023-09-19T08:27:42;6.65;;;6.07;;
14030;SDS011;7090;49.436;8.490;2023-09-19T08:30:13;6.38;;;5.88;;
14030;SDS011;7090;49.436;8.490;2023-09-19T08:32:43;7.75;;;7.18;;
14030;SDS011;7090;49.436;8.490;2023-09-19T08:35:11;9.50;;;5.65;;
14030;SDS011;7090;49.436;8.490;2023-09-19T08:37:39;6.88;;;6.32;;
14030;SDS011;7090;49.436;8.490;2023-09-19T08:40:04;6.03;;;5.72;;
14030;SDS011;7090;49.436;8.490;2023-09-19T08:42:46;5.50;;;5.30;;
14030;SDS011;7090;49.436;8.490;2023-09-19T08:45:16;5.80;;;5.60;;
14030;SDS011;7090;49.436;8.490;2023-09-19T08:47:46;8.25;;;6.53;;
14030;SDS011;7090;49.436;8.490;2023-09-19T08:50:27;5.95;;;5.68;;
14030;SDS011;7090;49.436;8.490;2023-09-19T08:52:55;6.80;;;6.20;;
14030;SDS011;7090;49.436;8.490;2023-09-19T08:55:23;6.68;;;6.28;;
14030;SDS011;7090;49.436;8.490;2023-09-19T08:57:55;5.88;;;5.60;;
14030;SDS011;7090;49.436;8.490;2023-09-19T09:00:29;6.30;;;6.00;;
14030;SDS011;7090;49.436;8.490;2023-09-19T09:02:56;5.70;;;5.50;;
14030;SDS011;7090;49.436;8.490;2023-09-19T09:05:23;6.10;;;5.80;;
14030;SDS011;7090;49.436;8.490;2023-09-19T09:07:50;5.30;;;5.10;;
14030;SDS011;7090;49.436;8.490;2023-09-19T09:10:16;6.05;;;5.75;;
14030;SDS011;7090;49.436;8.490;2023-09-19T09:12:43;5.93;;;5.70;;
14030;SDS011;7090;49.436;8.490;2023-09-19T09:15:09;5.90;;;5.65;;
14030;SDS011;7090;49.436;8.490;2023-09-19T09:17:37;5.50;;;5.30;;
14030;SDS011;7090;49.436;8.490;2023-09-19T09:20:03;5.97;;;5.47;;
14030;SDS011;7090;49.436;8.490;2023-09-19T09:22:33;5.75;;;5.43;;
14030;SDS011;7090;49.436;8.490;2023-09-19T09:24:58;5.30;;;5.10;;
14030;SDS011;7090;49.436;8.490;2023-09-19T09:27:28;5.65;;;5.45;;
14030;SDS011;7090;49.436;8.490;2023-09-19T09:29:54;5.40;;;5.20;;
14030;SDS011;7090;49.436;8.490;2023-09-19T09:34:48;5.70;;;5.50;;
14030;SDS011;7090;49.436;8.490;2023-09-19T09:37:18;6.53;;;5.93;;
14030;SDS011;7090;49.436;8.490;2023-09-19T09:42:42;6.13;;;5.90;;
14030;SDS011;7090;49.436;8.490;2023-09-19T09:45:15;7.18;;;5.50;;
14030;SDS011;7090;49.436;8.490;2023-09-19T09:47:57;6.47;;;6.22;;
14030;SDS011;7090;49.436;8.490;2023-09-19T09:53:23;6.22;;;5.82;;
14030;SDS011;7090;49.436;8.490;2023-09-19T09:56:04;6.30;;;6.00;;
14030;SDS011;7090;49.436;8.490;2023-09-19T10:01:13;6.47;;;6.18;;
14030;SDS011;7090;49.436;8.490;2023-09-19T10:03:43;6.60;;;6.30;;
14030;SDS011;7090;49.436;8.490;2023-09-19T10:06:12;6.00;;;5.80;;
14030;SDS011;7090;49.436;8.490;2023-09-19T10:12:23;7.50;;;7.00;;
14030;SDS011;7090;49.436;8.490;2023-09-19T10:14:44;6.50;;;6.20;;
14030;SDS011;7090;49.436;8.490;2023-09-19T10:17:12;6.50;;;6.20;;
14030;SDS011;7090;49.436;8.490;2023-09-19T10:19:54;7.43;;;6.70;;
14030;SDS011;7090;49.436;8.490;2023-09-19T10:22:23;8.38;;;5.90;;
14030;SDS011;7090;49.436;8.490;2023-09-19T10:24:51;6.75;;;6.38;;
14030;SDS011;7090;49.436;8.490;2023-09-19T10:27:19;6.30;;;6.10;;
14030;SDS011;7090;49.436;8.490;2023-09-19T10:29:50;7.05;;;6.45;;
14030;SDS011;7090;49.436;8.490;2023-09-19T10:32:20;6.90;;;6.60;;
14030;SDS011;7090;49.436;8.490;2023-09-19T10:34:48;7.18;;;6.68;;
14030;SDS011;7090;49.436;8.490;2023-09-19T10:37:15;6.40;;;6.10;;
14030;SDS011;7090;49.436;8.490;2023-09-19T10:39:45;8.68;;;6.80;;
14030;SDS011;7090;49.436;8.490;2023-09-19T10:42:13;7.47;;;6.90;;
14030;SDS011;7090;49.436;8.490;2023-09-19T10:44:43;7.22;;;6.82;;
14030;SDS011;7090;49.436;8.490;2023-09-19T10:47:12;7.20;;;6.90;;
14030;SDS011;7090;49.436;8.490;2023-09-19T10:49:45;7.85;;;7.45;;
14030;SDS011;7090;49.436;8.490;2023-09-19T10:52:11;7.63;;;7.22;;
14030;SDS011;7090;49.436;8.490;2023-09-19T10:54:45;7.95;;;7.55;;
14030;SDS011;7090;49.436;8.490;2023-09-19T10:57:20;8.02;;;7.25;;
14030;SDS011;7090;49.436;8.490;2023-09-19T11:00:02;7.68;;;7.28;;
14030;SDS011;7090;49.436;8.490;2023-09-19T11:05:39;7.60;;;7.20;;
14030;SDS011;7090;49.436;8.490;2023-09-19T11:08:09;7.53;;;7.20;;
14030;SDS011;7090;49.436;8.490;2023-09-19T11:10:50;7.47;;;7.07;;
14030;SDS011;7090;49.436;8.490;2023-09-19T11:13:25;7.55;;;7.13;;
14030;SDS011;7090;49.436;8.490;2023-09-19T11:26:47;7.80;;;7.10;;
14030;SDS011;7090;49.436;8.490;2023-09-19T11:29:31;7.70;;;7.30;;
14030;SDS011;7090;49.436;8.490;2023-09-19T11:31:57;7.85;;;7.30;;
14030;SDS011;7090;49.436;8.490;2023-09-19T11:39:38;7.80;;;7.40;;
14030;SDS011;7090;49.436;8.490;2023-09-19T11:42:50;7.60;;;7.30;;
14030;SDS011;7090;49.436;8.490;2023-09-19T11:48:14;7.70;;;7.32;;
14030;SDS011;7090;49.436;8.490;2023-09-19T11:50:44;8.18;;;7.68;;
14030;SDS011;7090;49.436;8.490;2023-09-19T11:53:12;9.02;;;7.25;;
14030;SDS011;7090;49.436;8.490;2023-09-19T11:55:38;7.93;;;7.43;;
14030;SDS011;7090;49.436;8.490;2023-09-19T11:58:08;7.82;;;7.32;;
14030;SDS011;7090;49.436;8.490;2023-09-19T12:00:37;7.90;;;7.45;;
14030;SDS011;7090;49.436;8.490;2023-09-19T12:03:09;8.07;;;7.38;;
14030;SDS011;7090;49.436;8.490;2023-09-19T12:05:36;8.18;;;7.43;;
14030;SDS011;7090;49.436;8.490;2023-09-19T12:08:02;7.70;;;7.10;;
14030;SDS011;7090;49.436;8.490;2023-09-19T12:10:32;8.20;;;7.57;;
14030;SDS011;7090;49.436;8.490;2023-09-19T12:12:58;7.55;;;7.20;;
14030;SDS011;7090;49.436;8.490;2023-09-19T12:15:27;7.90;;;7.50;;
14030;SDS011;7090;49.436;8.490;2023-09-19T12:17:59;7.90;;;7.50;;
14030;SDS011;7090;49.436;8.490;2023-09-19T12:20:25;8.13;;;7.63;;
14030;SDS011;7090;49.436;8.490;2023-09-19T12:23:12;7.82;;;7.50;;
14030;SDS011;7090;49.436;8.490;2023-09-19T12:25:42;8.05;;;7.50;;
14030;SDS011;7090;49.436;8.490;2023-09-19T12:28:17;8.10;;;7.60;;
14030;SDS011;7090;49.436;8.490;2023-09-19T12:30:43;8.40;;;8.00;;
14030;SDS011;7090;49.436;8.490;2023-09-19T12:33:16;8.38;;;7.68;;
14030;SDS011;7090;49.436;8.490;2023-09-19T12:35:44;7.65;;;7.15;;
14030;SDS011;7090;49.436;8.490;2023-09-19T12:38:10;8.05;;;7.45;;
14030;SDS011;7090;49.436;8.490;2023-09-19T12:40:37;8.00;;;7.53;;
14030;SDS011;7090;49.436;8.490;2023-09-19T12:43:07;7.55;;;7.22;;
14030;SDS011;7090;49.436;8.490;2023-09-19T12:45:34;7.43;;;7.03;;
14030;SDS011;7090;49.436;8.490;2023-09-19T12:51:08;8.27;;;7.57;;
14030;SDS011;7090;49.436;8.490;2023-09-19T12:53:39;7.80;;;7.40;;
14030;SDS011;7090;49.436;8.490;2023-09-19T12:56:09;8.07;;;7.57;;
14030;SDS011;7090;49.436;8.490;2023-09-19T13:01:21;7.70;;;7.30;;
14030;SDS011;7090;49.436;8.490;2023-09-19T13:06:44;8.25;;;7.78;;
14030;SDS011;7090;49.436;8.490;2023-09-19T13:09:14;8.00;;;7.60;;
14030;SDS011;7090;49.436;8.490;2023-09-19T13:11:41;8.90;;;8.30;;
14030;SDS011;7090;49.436;8.490;2023-09-19T13:14:13;8.10;;;7.75;;
14030;SDS011;7090;49.436;8.490;2023-09-19T13:16:59;8.45;;;7.70;;
14030;SDS011;7090;49.436;8.490;2023-09-19T13:19:44;7.93;;;7.53;;
14030;SDS011;7090;49.436;8.490;2023-09-19T13:25:17;7.30;;;7.00;;
14030;SDS011;7090;49.436;8.490;2023-09-19T13:27:44;7.43;;;7.13;;
14030;SDS011;7090;49.436;8.490;2023-09-19T13:30:14;8.18;;;7.55;;
14030;SDS011;7090;49.436;8.490;2023-09-19T13:32:39;8.10;;;7.70;;
14030;SDS011;7090;49.436;8.490;2023-09-19T13:35:07;8.10;;;7.80;;
14030;SDS011;7090;49.436;8.490;2023-09-19T13:37:38;8.50;;;8.00;;
14030;SDS011;7090;49.436;8.490;2023-09-19T13:40:08;8.93;;;8.32;;
14030;SDS011;7090;49.436;8.490;2023-09-19T13:42:38;8.95;;;8.35;;
14030;SDS011;7090;49.436;8.490;2023-09-19T13:45:05;7.97;;;7.68;;
14030;SDS011;7090;49.436;8.490;2023-09-19T13:47:31;8.27;;;7.55;;
14030;SDS011;7090;49.436;8.490;2023-09-19T13:49:57;8.20;;;7.80;;
14030;SDS011;7090;49.436;8.490;2023-09-19T13:52:29;8.18;;;7.78;;
14030;SDS011;7090;49.436;8.490;2023-09-19T13:54:55;8.10;;;7.70;;
14030;SDS011;7090;49.436;8.490;2023-09-19T13:57:22;8.10;;;7.70;;
14030;SDS011;7090;49.436;8.490;2023-09-19T13:59:48;8.23;;;7.63;;
14030;SDS011;7090;49.436;8.490;2023-09-19T14:02:14;8.55;;;8.15;;
14030;SDS011;7090;49.436;8.490;2023-09-19T14:04:40;8.07;;;7.68;;
14030;SDS011;7090;49.436;8.490;2023-09-19T14:07:06;7.60;;;7.30;;
14030;SDS011;7090;49.436;8.490;2023-09-19T14:09:32;7.88;;;7.40;;
14030;SDS011;7090;49.436;8.490;2023-09-19T14:11:58;7.32;;;6.90;;
14030;SDS011;7090;49.436;8.490;2023-09-19T14:14:24;7.78;;;7.28;;
14030;SDS011;7090;49.436;8.490;2023-09-19T14:16:50;7.20;;;6.63;;
14030;SDS011;7090;49.436;8.490;2023-09-19T14:19:17;7.43;;;7.03;;
14030;SDS011;7090;49.436;8.490;2023-09-19T14:21:42;7.47;;;7.07;;
14030;SDS011;7090;49.436;8.490;2023-09-19T14:24:08;7.80;;;7.20;;
14030;SDS011;7090;49.436;8.490;2023-09-19T14:26:35;7.78;;;7.05;;
14030;SDS011;7090;49.436;8.490;2023-09-19T14:29:01;7.30;;;6.90;;
14030;SDS011;7090;49.436;8.490;2023-09-19T14:31:26;6.85;;;6.55;;
14030;SDS011;7090;49.436;8.490;2023-09-19T14:33:56;7.80;;;7.40;;
14030;SDS011;7090;49.436;8.490;2023-09-19T14:36:24;7.28;;;6.88;;
14030;SDS011;7090;49.436;8.490;2023-09-19T14:38:52;7.43;;;7.13;;
14030;SDS011;7090;49.436;8.490;2023-09-19T14:41:24;7.85;;;7.25;;
14030;SDS011;7090;49.436;8.490;2023-09-19T14:43:50;7.32;;;7.03;;
14030;SDS011;7090;49.436;8.490;2023-09-19T14:46:16;7.78;;;7.45;;
14030;SDS011;7090;49.436;8.490;2023-09-19T14:48:43;7.50;;;7.10;;
14030;SDS011;7090;49.436;8.490;2023-09-19T14:51:09;7.22;;;6.93;;
14030;SDS011;7090;49.436;8.490;2023-09-19T14:53:35;7.63;;;7.22;;
14030;SDS011;7090;49.436;8.490;2023-09-19T14:56:04;7.85;;;7.43;;
14030;SDS011;7090;49.436;8.490;2023-09-19T14:58:32;7.60;;;7.15;;
14030;SDS011;7090;49.436;8.490;2023-09-19T15:01:16;7.78;;;7.28;;
14030;SDS011;7090;49.436;8.490;2023-09-19T15:03:42;7.20;;;6.90;;
14030;SDS011;7090;49.436;8.490;2023-09-19T15:06:11;7.53;;;7.13;;
14030;SDS011;7090;49.436;8.490;2023-09-19T15:08:39;6.97;;;6.68;;
14030;SDS011;7090;49.436;8.490;2023-09-19T15:11:08;7.28;;;6.97;;
14030;SDS011;7090;49.436;8.490;2023-09-19T15:13:34;7.35;;;6.85;;
14030;SDS011;7090;49.436;8.490;2023-09-19T15:16:03;6.80;;;6.50;;
14030;SDS011;7090;49.436;8.490;2023-09-19T15:18:33;7.20;;;6.90;;
14030;SDS011;7090;49.436;8.490;2023-09-19T15:21:01;6.78;;;6.47;;
14030;SDS011;7090;49.436;8.490;2023-09-19T15:23:28;7.10;;;6.80;;
14030;SDS011;7090;49.436;8.490;2023-09-19T15:26:04;7.15;;;6.85;;
14030;SDS011;7090;49.436;8.490;2023-09-19T15:28:31;7.28;;;6.65;;
14030;SDS011;7090;49.436;8.490;2023-09-19T15:31:02;7.75;;;7.25;;
14030;SDS011;7090;49.436;8.490;2023-09-19T15:33:29;7.00;;;6.70;;
14030;SDS011;7090;49.436;8.490;2023-09-19T15:41:39;7.45;;;6.90;;
14030;SDS011;7090;49.436;8.490;2023-09-19T15:44:13;6.40;;;6.20;;
14030;SDS011;7090;49.436;8.490;2023-09-19T15:46:41;6.90;;;6.60;;
14030;SDS011;7090;49.436;8.490;2023-09-19T15:49:07;7.30;;;6.80;;
14030;SDS011;7090;49.436;8.490;2023-09-19T15:51:33;7.43;;;7.03;;
14030;SDS011;7090;49.436;8.490;2023-09-19T15:54:01;6.68;;;6.47;;
14030;SDS011;7090;49.436;8.490;2023-09-19T15:56:27;7.40;;;7.10;;
14030;SDS011;7090;49.436;8.490;2023-09-19T15:58:54;7.10;;;6.80;;
14030;SDS011;7090;49.436;8.490;2023-09-19T16:01:20;7.47;;;7.18;;
14030;SDS011;7090;49.436;8.490;2023-09-19T16:03:50;7.20;;;6.80;;
14030;SDS011;7090;49.436;8.490;2023-09-19T16:06:24;7.43;;;7.13;;
14030;SDS011;7090;49.436;8.490;2023-09-19T16:08:52;7.72;;;7.32;;
14030;SDS011;7090;49.436;8.490;2023-09-19T16:11:23;7.35;;;7.05;;
14030;SDS011;7090;49.436;8.490;2023-09-19T16:13:50;7.75;;;7.35;;
14030;SDS011;7090;49.436;8.490;2023-09-19T16:16:17;7.35;;;7.05;;
14030;SDS011;7090;49.436;8.490;2023-09-19T16:18:46;7.30;;;6.90;;
14030;SDS011;7090;49.436;8.490;2023-09-19T16:21:22;9.13;;;6.70;;
14030;SDS011;7090;49.436;8.490;2023-09-19T16:23:52;7.30;;;6.90;;
14030;SDS011;7090;49.436;8.490;2023-09-19T16:26:19;7.10;;;6.60;;